createdAt,value
2023-11-24T00:00:59.624Z,22.63
2023-11-24T00:03:26.429Z,30.40
2023-11-24T00:05:53.253Z,28.03
2023-11-24T00:08:20.020Z,37.00
2023-11-24T00:10:46.744Z,30.63
2023-11-24T00:13:13.475Z,39.20
2023-11-24T00:15:44.102Z,37.90
2023-11-24T00:18:10.966Z,31.98
2023-11-24T00:20:38.765Z,34.92
2023-11-24T00:23:05.581Z,32.90
2023-11-24T00:25:35.385Z,30.90
2023-11-24T00:28:02.308Z,40.10
2023-11-24T00:30:29.079Z,37.80
2023-11-24T00:32:55.909Z,40.63
2023-11-24T00:35:22.710Z,41.30
2023-11-24T00:37:49.725Z,34.40
2023-11-24T00:40:19.477Z,36.35
2023-11-24T00:42:46.362Z,39.53
2023-11-24T00:45:13.530Z,32.35
2023-11-24T00:47:40.602Z,32.60
2023-11-24T00:50:08.031Z,27.95
2023-11-24T00:52:34.762Z,27.88
2023-11-24T00:55:01.546Z,26.13
2023-11-24T00:57:28.287Z,20.45
2023-11-24T00:59:54.965Z,20.35
2023-11-24T01:02:21.706Z,24.88
2023-11-24T01:04:49.438Z,26.85
2023-11-24T01:07:16.421Z,24.92
2023-11-24T01:09:43.152Z,22.65
2023-11-24T01:12:09.943Z,21.97
2023-11-24T01:14:36.635Z,16.45
2023-11-24T01:17:04.126Z,20.75
2023-11-24T01:19:30.909Z,24.40
2023-11-24T01:21:58.280Z,20.67
2023-11-24T01:24:25.106Z,20.50
2023-11-24T01:26:51.894Z,17.83
2023-11-24T01:29:18.567Z,18.43
2023-11-24T01:31:45.876Z,21.10
2023-11-24T01:34:12.735Z,17.97
2023-11-24T01:36:39.708Z,19.90
2023-11-24T01:39:09.482Z,20.40
2023-11-24T01:41:36.326Z,20.27
2023-11-24T01:44:04.334Z,20.27
2023-11-24T01:46:32.464Z,16.70
2023-11-24T01:48:59.972Z,17.23
2023-11-24T01:51:27.773Z,15.80
2023-11-24T01:53:55.327Z,15.10
2023-11-24T01:56:22.616Z,14.17
2023-11-24T01:58:51.325Z,15.17
2023-11-24T02:01:18.029Z,14.97
2023-11-24T02:03:44.904Z,15.93
2023-11-24T02:06:12.892Z,14.60
2023-11-24T02:08:40.428Z,15.70
2023-11-24T02:11:07.703Z,15.87
2023-11-24T02:13:34.361Z,15.73
2023-11-24T02:16:01.663Z,14.20
2023-11-24T02:18:28.623Z,12.93
2023-11-24T02:20:55.475Z,13.95
2023-11-24T02:23:23.218Z,13.52
2023-11-24T02:25:50.450Z,14.60
2023-11-24T02:28:17.203Z,17.50
2023-11-24T02:30:44.063Z,14.97
2023-11-24T02:33:12.096Z,14.60
2023-11-24T02:35:43.795Z,13.70
2023-11-24T02:38:10.531Z,12.47
2023-11-24T02:40:37.288Z,14.52
2023-11-24T02:43:04.063Z,13.50
2023-11-24T02:45:31.189Z,12.40
2023-11-24T02:47:58.025Z,17.30
2023-11-24T02:50:24.785Z,14.43
2023-11-24T02:52:51.448Z,13.50
2023-11-24T02:55:19.788Z,15.30
2023-11-24T02:57:48.729Z,14.53
2023-11-24T03:00:17.213Z,17.25
2023-11-24T03:02:44.912Z,17.70
2023-11-24T03:05:12.886Z,16.87
2023-11-24T03:07:39.577Z,15.13
2023-11-24T03:10:06.926Z,15.70
2023-11-24T03:12:33.631Z,15.57
2023-11-24T03:15:00.385Z,17.73
2023-11-24T03:17:27.199Z,17.37
2023-11-24T03:19:54.500Z,15.77
2023-11-24T03:22:21.146Z,17.10
2023-11-24T03:24:47.978Z,16.03
2023-11-24T03:27:14.691Z,16.98
2023-11-24T03:29:41.542Z,17.37
2023-11-24T03:32:08.214Z,19.67
2023-11-24T03:34:35.050Z,17.03
2023-11-24T03:37:01.849Z,18.10
2023-11-24T03:39:28.872Z,16.37
2023-11-24T03:41:56.578Z,20.90
2023-11-24T03:44:23.277Z,17.10
2023-11-24T03:46:49.990Z,19.60
2023-11-24T03:49:17.180Z,15.63
2023-11-24T03:51:43.910Z,14.47
2023-11-24T03:54:10.701Z,16.33
2023-11-24T03:56:38.627Z,13.90
2023-11-24T03:59:05.319Z,13.83
2023-11-24T04:01:32.114Z,15.60
2023-11-24T04:04:00.406Z,16.47
2023-11-24T04:06:27.213Z,17.60
2023-11-24T04:08:54.713Z,17.83
2023-11-24T04:11:22.051Z,17.30
2023-11-24T04:13:48.835Z,20.43
2023-11-24T04:16:15.973Z,22.27
2023-11-24T04:18:42.791Z,21.27
2023-11-24T04:21:09.965Z,19.47
2023-11-24T04:23:36.738Z,17.77
2023-11-24T04:26:03.955Z,18.87
2023-11-24T04:28:30.728Z,19.27
2023-11-24T04:30:57.524Z,18.23
2023-11-24T04:33:24.242Z,21.90
2023-11-24T04:35:50.991Z,21.47
2023-11-24T04:38:17.781Z,25.27
2023-11-24T04:40:44.467Z,25.33
2023-11-24T04:43:25.351Z,22.47
2023-11-24T04:45:52.305Z,23.30
2023-11-24T04:48:19.004Z,27.97
2023-11-24T04:50:45.787Z,30.77
2023-11-24T04:53:12.602Z,28.07
2023-11-24T04:55:39.361Z,26.80
2023-11-24T04:58:06.262Z,25.17
2023-11-24T05:00:33.106Z,31.27
2023-11-24T05:02:59.857Z,35.47
2023-11-24T05:05:27.004Z,38.50
2023-11-24T05:07:54.223Z,45.53
2023-11-24T05:10:20.957Z,41.07
2023-11-24T05:12:47.746Z,43.93
2023-11-24T05:15:20.731Z,39.53
2023-11-24T05:17:47.578Z,44.77
2023-11-24T05:20:15.829Z,70.53
2023-11-24T05:22:42.599Z,54.50
2023-11-24T05:25:09.501Z,54.67
2023-11-24T05:27:36.296Z,57.17
2023-11-24T05:30:07.970Z,64.63
2023-11-24T05:32:36.213Z,45.37
2023-11-24T05:35:03.967Z,40.00
2023-11-24T05:37:30.986Z,46.90
2023-11-24T05:39:58.239Z,51.13
2023-11-24T05:42:25.092Z,53.53
2023-11-24T05:44:51.862Z,57.83
2023-11-24T05:47:18.553Z,67.27
2023-11-24T05:49:45.569Z,61.73
2023-11-24T05:52:16.822Z,60.80
2023-11-24T05:54:43.757Z,51.00
2023-11-24T05:57:10.509Z,53.20
2023-11-24T05:59:37.241Z,52.53
2023-11-24T06:02:04.994Z,45.70
2023-11-24T06:04:31.953Z,36.63
2023-11-24T06:06:58.833Z,42.03
2023-11-24T06:09:25.575Z,47.63
2023-11-24T06:11:52.408Z,66.77
2023-11-24T06:14:19.635Z,61.93
2023-11-24T06:16:46.382Z,83.27
2023-11-24T06:19:13.178Z,68.10
2023-11-24T06:21:41.500Z,59.73
2023-11-24T06:24:08.674Z,62.33
2023-11-24T06:26:35.393Z,60.27
2023-11-24T06:29:02.220Z,51.97
2023-11-24T06:31:30.745Z,73.37
2023-11-24T06:33:58.031Z,71.30
2023-11-24T06:36:24.759Z,69.68
2023-11-24T06:38:51.461Z,71.78
2023-11-24T06:41:18.440Z,71.95
2023-11-24T06:43:45.080Z,64.80
2023-11-24T06:46:13.238Z,61.78
2023-11-24T06:48:40.071Z,69.40
2023-11-24T06:51:07.590Z,78.40
2023-11-24T06:53:34.721Z,82.70
2023-11-24T06:56:01.470Z,69.28
2023-11-24T06:58:28.155Z,68.32
2023-11-24T07:00:55.035Z,73.07
2023-11-24T07:03:21.830Z,79.10
2023-11-24T07:05:48.633Z,71.68
2023-11-24T07:08:18.137Z,86.18
2023-11-24T07:10:45.491Z,75.72
2023-11-24T07:13:12.418Z,69.95
2023-11-24T07:15:40.757Z,65.88
2023-11-24T07:18:07.687Z,60.83
2023-11-24T07:20:34.806Z,55.67
2023-11-24T07:23:01.518Z,50.38
2023-11-24T07:25:28.184Z,58.22
2023-11-24T07:27:54.929Z,49.88
2023-11-24T07:30:23.933Z,49.50
2023-11-24T07:32:51.767Z,41.97
2023-11-24T07:35:19.661Z,44.58
2023-11-24T07:37:46.408Z,67.38
2023-11-24T07:40:16.279Z,83.95
2023-11-24T07:42:45.441Z,83.93
2023-11-24T07:45:12.928Z,63.38
2023-11-24T07:47:41.323Z,62.55
2023-11-24T07:50:08.888Z,62.42
2023-11-24T07:52:36.557Z,59.42
2023-11-24T07:55:06.637Z,63.25
2023-11-24T07:57:33.686Z,50.92
2023-11-24T08:00:00.471Z,47.50
2023-11-24T08:02:28.653Z,17.38
2023-11-24T08:04:56.332Z,14.23
2023-11-24T08:07:23.273Z,15.55
2023-11-24T08:09:50.041Z,9.88
2023-11-24T08:12:18.013Z,11.82
2023-11-24T08:14:44.936Z,17.25
2023-11-24T08:17:11.933Z,9.45
2023-11-24T08:19:38.822Z,6.75
2023-11-24T08:22:06.092Z,7.03
2023-11-24T08:24:33.004Z,10.02
2023-11-24T08:26:59.752Z,4.90
2023-11-24T08:29:27.643Z,8.25
2023-11-24T08:31:54.421Z,15.85
2023-11-24T08:34:21.223Z,14.88
2023-11-24T08:36:48.123Z,16.10
2023-11-24T08:39:14.925Z,11.52
2023-11-24T08:41:46.304Z,4.35
2023-11-24T08:44:13.419Z,2.30
2023-11-24T08:46:40.691Z,2.60
2023-11-24T08:49:09.696Z,1.75
2023-11-24T08:51:36.590Z,2.90
2023-11-24T08:54:04.927Z,3.97
2023-11-24T08:56:31.757Z,2.45
2023-11-24T08:58:58.701Z,2.53
2023-11-24T09:01:25.655Z,3.95
2023-11-24T09:03:53.495Z,3.28
2023-11-24T09:06:27.795Z,2.83
2023-11-24T09:08:55.988Z,2.55
2023-11-24T09:11:23.495Z,3.70
2023-11-24T09:13:50.341Z,1.85
2023-11-24T09:16:18.425Z,4.07
2023-11-24T09:18:46.066Z,1.83
2023-11-24T09:21:13.903Z,2.63
2023-11-24T09:23:41.489Z,4.28
2023-11-24T09:26:16.420Z,1.60
2023-11-24T09:28:43.790Z,2.97
2023-11-24T09:31:10.717Z,2.13
2023-11-24T09:33:39.361Z,2.40
2023-11-24T09:36:07.922Z,5.78
2023-11-24T09:38:35.179Z,3.35
2023-11-24T09:41:12.348Z,2.28
2023-11-24T09:43:39.569Z,4.68
2023-11-24T09:46:06.961Z,5.05
2023-11-24T09:48:35.173Z,5.32
2023-11-24T09:51:08.923Z,2.05
2023-11-24T09:53:35.811Z,2.42
2023-11-24T09:56:04.382Z,3.92
2023-11-24T09:58:35.315Z,3.50
2023-11-24T10:01:16.667Z,2.55
2023-11-24T10:03:47.472Z,2.90
2023-11-24T10:06:14.674Z,3.65
2023-11-24T10:08:41.565Z,2.03
2023-11-24T10:11:14.320Z,4.07
2023-11-24T10:13:43.039Z,4.82
2023-11-24T10:16:11.962Z,3.25
2023-11-24T10:18:39.742Z,2.78
2023-11-24T10:21:23.554Z,4.60
2023-11-24T10:23:58.481Z,6.45
2023-11-24T10:26:27.010Z,6.13
2023-11-24T10:28:56.101Z,6.22
2023-11-24T10:31:22.935Z,8.15
2023-11-24T10:33:50.646Z,3.97
2023-11-24T10:36:19.460Z,9.82
2023-11-24T10:38:48.148Z,3.80
2023-11-24T10:41:24.631Z,4.05
2023-11-24T10:43:52.707Z,5.78
2023-11-24T10:46:22.158Z,3.80
2023-11-24T10:48:59.196Z,5.07
2023-11-24T10:51:48.223Z,2.55
2023-11-24T10:54:30.387Z,6.57
2023-11-24T10:56:58.868Z,4.20
2023-11-24T10:59:29.204Z,4.70
2023-11-24T11:01:59.114Z,5.13
2023-11-24T11:04:28.310Z,4.18
2023-11-24T11:07:18.158Z,4.85
2023-11-24T11:09:59.576Z,3.95
2023-11-24T11:12:32.565Z,5.22
2023-11-24T11:14:59.783Z,4.10
2023-11-24T11:17:27.757Z,5.03
2023-11-24T11:20:05.745Z,4.60
2023-11-24T11:22:39.156Z,4.13
2023-11-24T11:25:19.208Z,4.80
2023-11-24T11:27:49.229Z,4.72
2023-11-24T11:30:59.979Z,5.18
2023-11-24T11:34:18.723Z,10.88
2023-11-24T11:37:31.049Z,5.95
2023-11-24T11:40:39.358Z,6.55
2023-11-24T11:43:11.095Z,4.15
2023-11-24T11:45:51.442Z,7.85
2023-11-24T11:49:08.206Z,7.78
2023-11-24T11:52:08.477Z,5.75
2023-11-24T11:55:14.566Z,4.88
2023-11-24T11:57:41.301Z,8.50
2023-11-24T12:00:09.766Z,6.82
2023-11-24T12:03:33.713Z,11.40
2023-11-24T12:06:22.368Z,5.38
2023-11-24T12:09:23.528Z,4.85
2023-11-24T12:12:26.574Z,4.80
2023-11-24T12:14:56.024Z,5.20
2023-11-24T12:17:25.146Z,5.65
2023-11-24T12:19:53.548Z,4.68
2023-11-24T12:23:41.280Z,4.55
2023-11-24T12:30:15.621Z,3.58
2023-11-24T12:32:43.923Z,4.57
2023-11-24T12:35:10.884Z,3.63
2023-11-24T12:37:41.947Z,3.55
2023-11-24T12:40:13.217Z,6.13
2023-11-24T12:42:42.193Z,4.13
2023-11-24T12:45:10.162Z,5.00
2023-11-24T12:50:17.554Z,3.60
2023-11-24T12:52:46.316Z,4.15
2023-11-24T12:55:13.640Z,2.45
2023-11-24T12:57:43.835Z,3.10
2023-11-24T13:00:15.193Z,5.72
2023-11-24T13:02:42.852Z,4.32
2023-11-24T13:05:11.686Z,5.90
2023-11-24T13:07:41.923Z,3.03
2023-11-24T13:10:12.164Z,3.95
2023-11-24T13:15:11.548Z,5.13
2023-11-24T13:17:39.757Z,5.60
2023-11-24T13:20:11.756Z,5.07
2023-11-24T13:22:39.844Z,7.38
2023-11-24T13:25:10.122Z,6.13
2023-11-24T13:27:40.645Z,4.90
2023-11-24T13:30:10.949Z,6.45
2023-11-24T13:32:42.136Z,8.13
2023-11-24T13:35:12.780Z,16.45
2023-11-24T13:37:39.961Z,9.57
2023-11-24T13:40:07.804Z,3.85
2023-11-24T13:42:35.591Z,8.63
2023-11-24T13:45:02.373Z,9.57
2023-11-24T13:47:29.143Z,7.30
2023-11-24T13:49:55.951Z,7.15
2023-11-24T13:52:22.768Z,6.57
2023-11-24T13:54:51.659Z,5.60
2023-11-24T13:57:18.397Z,4.10
2023-11-24T13:59:45.059Z,6.85
2023-11-24T14:02:11.986Z,8.20
2023-11-24T14:04:39.373Z,7.70
2023-11-24T14:07:06.174Z,6.95
2023-11-24T14:09:44.159Z,8.77
2023-11-24T14:12:11.076Z,9.07
2023-11-24T14:14:37.955Z,21.63
2023-11-24T14:17:05.340Z,15.52
2023-11-24T14:19:32.290Z,15.32
2023-11-24T14:22:00.709Z,8.48
2023-11-24T14:24:27.564Z,5.25
2023-11-24T14:26:55.591Z,6.25
2023-11-24T14:29:22.307Z,7.75
2023-11-24T14:31:49.103Z,7.53
2023-11-24T14:34:19.189Z,5.93
2023-11-24T14:36:46.745Z,7.47
2023-11-24T14:42:25.278Z,21.48
2023-11-24T14:44:52.018Z,7.47
2023-11-24T14:47:18.765Z,11.73
2023-11-24T14:49:45.486Z,12.95
2023-11-24T14:52:13.222Z,9.93
2023-11-24T14:54:40.059Z,11.77
2023-11-24T14:57:07.245Z,8.50
2023-11-24T14:59:33.999Z,7.85
2023-11-24T15:02:09.000Z,7.88
2023-11-24T15:04:49.523Z,9.48
2023-11-24T15:07:31.697Z,8.45
2023-11-24T15:10:10.392Z,8.70
2023-11-24T15:13:03.880Z,9.75
2023-11-24T15:15:31.606Z,13.57
2023-11-24T15:18:01.416Z,16.08
2023-11-24T15:20:33.604Z,15.55
2023-11-24T15:23:00.480Z,9.23
2023-11-24T15:25:28.409Z,9.52
2023-11-24T15:27:59.767Z,18.30
2023-11-24T15:30:26.536Z,8.88
2023-11-24T15:32:54.475Z,8.73
2023-11-24T15:35:21.296Z,11.73
2023-11-24T15:37:47.999Z,11.73
2023-11-24T15:40:20.821Z,24.65
2023-11-24T15:42:56.092Z,6.93
2023-11-24T15:45:29.792Z,8.43
2023-11-24T15:48:09.704Z,9.15
2023-11-24T15:50:42.661Z,9.32
2023-11-24T15:53:24.058Z,11.10
2023-11-24T15:55:54.668Z,14.45
2023-11-24T15:58:26.554Z,13.27
2023-11-24T16:00:55.834Z,17.55
2023-11-24T16:03:24.904Z,11.38
2023-11-24T16:06:09.452Z,8.88
2023-11-24T16:08:45.386Z,14.88
2023-11-24T16:11:12.362Z,10.30
2023-11-24T16:13:42.627Z,14.07
2023-11-24T16:16:10.030Z,20.13
2023-11-24T16:18:40.607Z,27.70
2023-11-24T16:21:08.508Z,21.13
2023-11-24T16:23:35.183Z,13.52
2023-11-24T16:26:01.998Z,13.43
2023-11-24T16:28:28.887Z,15.70
2023-11-24T16:30:56.098Z,11.65
2023-11-24T16:33:22.910Z,15.60
2023-11-24T16:35:49.571Z,12.80
2023-11-24T16:38:16.381Z,13.25
2023-11-24T16:40:43.127Z,10.90
2023-11-24T16:43:10.003Z,9.90
2023-11-24T16:45:37.359Z,11.02
2023-11-24T16:48:05.598Z,10.27
2023-11-24T16:50:35.254Z,11.25
2023-11-24T16:53:02.045Z,13.35
2023-11-24T16:55:31.386Z,12.23
2023-11-24T16:57:58.234Z,13.18
2023-11-24T17:00:24.957Z,9.95
2023-11-24T17:02:52.577Z,9.93
2023-11-24T17:05:21.994Z,7.35
2023-11-24T17:07:48.691Z,15.02
2023-11-24T17:10:15.644Z,8.90
2023-11-24T17:12:42.987Z,13.15
2023-11-24T17:15:24.201Z,9.70
2023-11-24T17:17:54.687Z,7.82
2023-11-24T17:20:21.420Z,10.48
2023-11-24T17:22:48.975Z,10.85
2023-11-24T17:25:27.848Z,12.60
2023-11-24T17:27:59.164Z,15.52
2023-11-24T17:30:25.961Z,13.68
2023-11-24T17:32:52.708Z,10.88
2023-11-24T17:35:19.585Z,11.27
2023-11-24T17:37:47.902Z,8.40
2023-11-24T17:40:16.834Z,8.10
2023-11-24T17:42:43.916Z,11.43
2023-11-24T17:45:17.108Z,19.25
2023-11-24T17:47:48.339Z,7.68
2023-11-24T17:50:15.236Z,10.55
2023-11-24T17:52:42.355Z,8.77
2023-11-24T17:55:10.311Z,12.15
2023-11-24T17:57:37.922Z,14.80
2023-11-24T18:00:09.887Z,11.60
2023-11-24T18:02:36.716Z,7.70
2023-11-24T18:05:03.548Z,7.43
2023-11-24T18:07:30.322Z,9.30
2023-11-24T18:09:57.048Z,8.60
2023-11-24T18:12:23.836Z,8.27
2023-11-24T18:14:50.553Z,7.60
2023-11-24T18:17:17.278Z,9.23
2023-11-24T18:19:44.046Z,7.70
2023-11-24T18:22:11.005Z,9.55
2023-11-24T18:24:38.286Z,8.15
2023-11-24T18:27:05.453Z,10.68
2023-11-24T18:29:55.200Z,10.65
2023-11-24T18:32:23.342Z,11.27
2023-11-24T18:34:50.576Z,9.10
2023-11-24T18:37:18.802Z,10.40
2023-11-24T18:39:48.001Z,7.72
2023-11-24T18:42:15.011Z,15.30
2023-11-24T18:44:41.789Z,9.98
2023-11-24T18:47:08.489Z,9.45
2023-11-24T18:49:35.183Z,8.57
2023-11-24T18:52:02.065Z,6.28
2023-11-24T18:54:29.940Z,6.85
2023-11-24T18:56:59.327Z,16.23
2023-11-24T19:02:19.492Z,6.15
2023-11-24T19:04:46.599Z,7.80
2023-11-24T19:07:13.459Z,11.63
2023-11-24T19:09:40.837Z,13.15
2023-11-24T19:12:07.878Z,13.63
2023-11-24T19:14:35.643Z,9.10
2023-11-24T19:17:02.505Z,6.60
2023-11-24T19:19:54.221Z,12.48
2023-11-24T19:22:40.148Z,9.73
2023-11-24T19:25:07.249Z,11.77
2023-11-24T19:27:34.983Z,9.05
2023-11-24T19:30:01.842Z,7.80
2023-11-24T19:32:28.885Z,6.80
2023-11-24T19:34:55.937Z,9.63
2023-11-24T19:37:22.833Z,10.77
2023-11-24T19:39:49.894Z,7.82
2023-11-24T19:42:19.083Z,6.88
2023-11-24T19:44:48.023Z,8.13
2023-11-24T19:47:14.915Z,11.48
2023-11-24T19:49:41.617Z,8.10
2023-11-24T19:52:10.559Z,7.82
2023-11-24T19:54:37.391Z,10.32
2023-11-24T19:57:05.469Z,8.27
2023-11-24T19:59:32.216Z,7.53
2023-11-24T20:02:00.994Z,8.60
2023-11-24T20:04:28.689Z,12.25
2023-11-24T20:06:55.465Z,5.50
2023-11-24T20:09:23.656Z,6.20
2023-11-24T20:11:52.728Z,9.95
2023-11-24T20:14:19.673Z,8.93
2023-11-24T20:16:49.837Z,7.88
2023-11-24T20:19:16.780Z,5.15
2023-11-24T20:21:43.456Z,11.32
2023-11-24T20:24:11.462Z,5.57
2023-11-24T20:26:38.685Z,6.82
2023-11-24T20:29:05.440Z,9.13
2023-11-24T20:31:32.332Z,11.90
2023-11-24T20:33:59.240Z,9.40
2023-11-24T20:36:26.096Z,10.38
2023-11-24T20:38:58.418Z,6.15
2023-11-24T20:41:25.152Z,6.60
2023-11-24T20:43:52.108Z,7.20
2023-11-24T20:46:18.987Z,7.55
2023-11-24T20:48:46.783Z,8.55
2023-11-24T20:51:14.987Z,8.88
2023-11-24T20:53:41.864Z,7.15
2023-11-24T20:56:11.882Z,9.65
2023-11-24T20:58:39.462Z,8.25
2023-11-24T21:01:06.596Z,8.60
2023-11-24T21:03:33.346Z,6.60
2023-11-24T21:06:00.378Z,7.03
2023-11-24T21:08:28.112Z,6.13
2023-11-24T21:10:54.913Z,6.75
2023-11-24T21:13:23.513Z,7.63
2023-11-24T21:15:50.888Z,5.70
2023-11-24T21:18:17.706Z,5.47
2023-11-24T21:20:44.458Z,7.30
2023-11-24T21:23:13.200Z,7.05
2023-11-24T21:25:40.396Z,7.78
2023-11-24T21:28:09.064Z,8.93
2023-11-24T21:30:35.916Z,7.38
2023-11-24T21:33:03.293Z,8.93
2023-11-24T21:35:32.155Z,7.20
2023-11-24T21:37:59.267Z,8.35
2023-11-24T21:40:26.262Z,4.20
2023-11-24T21:42:53.129Z,8.43
2023-11-24T21:45:19.915Z,8.38
2023-11-24T21:47:47.231Z,5.80
2023-11-24T21:50:14.937Z,5.03
2023-11-24T21:52:45.651Z,8.63
2023-11-24T21:55:12.655Z,8.82
2023-11-24T21:57:39.687Z,8.82
2023-11-24T22:00:07.960Z,6.38
2023-11-24T22:02:40.526Z,8.25
2023-11-24T22:05:10.531Z,7.25
2023-11-24T22:07:38.542Z,5.13
2023-11-24T22:10:06.631Z,6.07
2023-11-24T22:12:37.240Z,6.65
2023-11-24T22:15:05.506Z,7.10
2023-11-24T22:17:35.338Z,7.93
2023-11-24T22:20:08.434Z,5.90
2023-11-24T22:22:35.489Z,10.15
2023-11-24T22:25:02.407Z,8.40
2023-11-24T22:27:29.121Z,7.03
2023-11-24T22:30:03.675Z,4.72
2023-11-24T22:32:33.363Z,7.85
2023-11-24T22:35:00.769Z,5.60
2023-11-24T22:37:28.076Z,6.53
2023-11-24T22:39:54.792Z,5.72
2023-11-24T22:42:23.976Z,5.10
2023-11-24T22:44:51.614Z,4.70
2023-11-24T22:47:19.363Z,6.30
2023-11-24T22:49:46.323Z,7.93
2023-11-24T22:52:13.184Z,7.45
2023-11-24T22:54:40.429Z,10.88
2023-11-24T22:57:07.931Z,6.40
2023-11-24T22:59:34.741Z,6.53
2023-11-24T23:02:01.758Z,7.93
2023-11-24T23:04:28.685Z,7.20
2023-11-24T23:06:55.438Z,4.75
2023-11-24T23:09:22.965Z,4.78
2023-11-24T23:11:50.385Z,6.30
2023-11-24T23:14:17.214Z,6.97
2023-11-24T23:16:45.327Z,4.70
2023-11-24T23:19:13.035Z,7.15
2023-11-24T23:21:42.026Z,6.75
2023-11-24T23:24:11.979Z,4.82
2023-11-24T23:26:39.465Z,4.35
2023-11-24T23:29:08.186Z,6.53
2023-11-24T23:31:35.178Z,8.18
2023-11-24T23:34:02.485Z,7.35
2023-11-24T23:36:29.706Z,5.43
2023-11-24T23:38:56.633Z,4.07
2023-11-24T23:41:23.645Z,5.60
2023-11-24T23:43:50.479Z,4.88
2023-11-24T23:46:17.448Z,5.07
2023-11-24T23:48:44.411Z,8.77
2023-11-24T23:51:11.321Z,6.47
2023-11-24T23:53:38.051Z,5.25
2023-11-24T23:56:06.836Z,4.32
2023-11-24T23:58:35.762Z,5.75
